»·PEaware :: SKY410 KPRC-KHII

SKY410 :: KPRC-KHII

FLIGHT INFORMATION

Flight Status: Arrived
Operator:
Sky High Charters
More flights by this operator :: More flights under this callsign
Pilot: Timothy L. (20714)
Aircraft: PIPER PA-46-310/350P MALIBU MIRAGE
(PA46)
More flights by this aircraft type
Origin: KPRC Love
United States
Destination: KHII Lake Havasu City
United States
More flights between these airports :: More routes between these airports
Route: WNSKI2 MUMTE V12 EED
File this flight plan on PilotEdge
Remarks:
Altitude:
(Current/Filed)
10,000ft
Speed:
(Current/Filed)
170kts
Departed: 01-Dec-19 02:39 PM
Arrived: 01-Dec-19 05:00 PM
Distance/Time
Traveled:
96nm/2:21
Distance/Time
To Go:
Arrived

Flight Plot

Page will automatically refresh every two minutes.

Flight plan parsing failed; only flown route is shown


Map Options




Map Legend


Flown Route
Filed Route
Departure Airport
Arrival Airport
Navaid (VOR, NDB)
Fix

Horizontal Profiles

Position Reports

Time Latitude Longitude Heading Altitude Ground
Speed
01-Dec-19 14:16 34.653855 -112.422585 130 4992ft 0kts
01-Dec-19 14:17 34.653855 -112.422585 130 4992ft 0kts
01-Dec-19 14:18 34.653855 -112.422585 130 4992ft 0kts
01-Dec-19 14:19 34.653855 -112.422585 130 4992ft 0kts
01-Dec-19 14:20 34.653855 -112.422585 130 4992ft 0kts
01-Dec-19 14:21 34.653855 -112.422585 130 4992ft 0kts
01-Dec-19 14:22 34.653855 -112.422585 130 4992ft 0kts
01-Dec-19 14:23 34.653855 -112.422585 130 4992ft 0kts
01-Dec-19 14:24 34.653855 -112.422585 130 4992ft 0kts
01-Dec-19 14:25 34.653855 -112.422585 130 4992ft 0kts
01-Dec-19 14:26 34.653855 -112.422585 130 4992ft 0kts
01-Dec-19 14:27 34.653541 -112.422604 213 4993ft 20kts
01-Dec-19 14:28 34.653786 -112.422260 46 4992ft 23kts
01-Dec-19 14:29 34.655474 -112.419874 43 4984ft 11kts
01-Dec-19 14:30 34.657065 -112.418196 40 4975ft 19kts
01-Dec-19 14:31 34.659346 -112.415763 41 4960ft 16kts
01-Dec-19 14:32 34.661183 -112.413809 41 4951ft 21kts
01-Dec-19 14:33 34.662615 -112.411992 127 4944ft 0kts
01-Dec-19 14:34 34.662615 -112.411992 127 4944ft 0kts
01-Dec-19 14:35 34.662615 -112.411992 127 4944ft 0kts
01-Dec-19 14:36 34.662615 -112.411992 127 4944ft 0kts
01-Dec-19 14:37 34.661797 -112.411727 222 4948ft 3kts
01-Dec-19 14:38 34.655108 -112.419021 227 5184ft 82kts
01-Dec-19 14:39 34.647610 -112.429529 230 5934ft 79kts
01-Dec-19 14:40 34.638101 -112.430427 84 6417ft 106kts
01-Dec-19 14:41 34.643156 -112.417964 47 7263ft 79kts
01-Dec-19 14:42 34.652559 -112.418753 330 7810ft 88kts
01-Dec-19 14:43 34.660338 -112.433002 285 8392ft 111kts
01-Dec-19 15:03 34.654966 -112.421632 133 4988ft 0kts
01-Dec-19 15:04 34.654966 -112.421632 133 4988ft 0kts
01-Dec-19 15:05 34.654966 -112.421632 133 4988ft 0kts
01-Dec-19 15:06 34.654966 -112.421632 133 4988ft 0kts
01-Dec-19 15:07 34.654966 -112.421632 133 4988ft 0kts
01-Dec-19 15:08 34.654966 -112.421632 133 4988ft 0kts
01-Dec-19 15:09 34.654974 -112.421439 54 4988ft 14kts
01-Dec-19 15:10 34.655891 -112.419426 43 4980ft 17kts
01-Dec-19 15:11 34.658341 -112.416832 42 4965ft 23kts
01-Dec-19 15:12 34.660606 -112.414432 41 4954ft 20kts
01-Dec-19 15:13 34.662692 -112.412267 80 4945ft 15kts
01-Dec-19 15:14 34.662595 -112.412002 132 4944ft 0kts
01-Dec-19 15:15 34.662005 -112.411506 220 4946ft 0kts
01-Dec-19 15:16 34.657757 -112.416045 221 4974ft 88kts
01-Dec-19 15:17 34.648446 -112.427040 222 5659ft 90kts
01-Dec-19 15:18 34.638956 -112.435633 191 6377ft 90kts
01-Dec-19 15:19 34.628840 -112.426114 97 7185ft 92kts
01-Dec-19 15:20 34.627463 -112.408185 103 7988ft 94kts
01-Dec-19 15:21 34.615634 -112.398180 137 8812ft 93kts
01-Dec-19 15:22 34.613270 -112.380386 66 9612ft 95kts
01-Dec-19 15:23 34.608632 -112.359655 125 10035ft 141kts
01-Dec-19 15:24 34.592922 -112.331800 123 10014ft 191kts
01-Dec-19 15:25 34.572883 -112.300861 132 9997ft 192kts
01-Dec-19 15:26 34.553339 -112.273398 133 9997ft 191kts
01-Dec-19 15:27 34.524905 -112.270749 212 10000ft 180kts
01-Dec-19 15:28 34.504027 -112.295711 233 9998ft 178kts
01-Dec-19 15:29 34.498395 -112.325038 299 10012ft 177kts
01-Dec-19 15:30 34.489331 -112.346095 183 10043ft 179kts
01-Dec-19 15:31 34.459983 -112.349686 192 9998ft 182kts
01-Dec-19 15:32 34.442923 -112.372000 281 10019ft 175kts
01-Dec-19 15:34 34.449673 -112.406024 285 9998ft 177kts
01-Dec-19 15:35 34.453655 -112.440161 267 9999ft 177kts
01-Dec-19 15:36 34.452494 -112.475067 269 9997ft 177kts
01-Dec-19 15:37 34.453791 -112.511025 275 9997ft 177kts
01-Dec-19 15:38 34.458456 -112.546147 282 9997ft 177kts
01-Dec-19 15:39 34.466693 -112.581140 288 9997ft 178kts
01-Dec-19 15:40 34.478202 -112.614411 295 9997ft 179kts
01-Dec-19 15:41 34.491890 -112.643938 301 9997ft 179kts
01-Dec-19 15:42 34.510164 -112.674354 307 9999ft 180kts
01-Dec-19 15:43 34.530248 -112.700486 314 9998ft 181kts
01-Dec-19 15:44 34.552515 -112.723397 320 9998ft 181kts
01-Dec-19 15:45 34.576601 -112.742855 327 9998ft 182kts
01-Dec-19 15:46 34.602290 -112.758771 334 9998ft 183kts
01-Dec-19 15:47 34.629189 -112.770949 340 9998ft 184kts
01-Dec-19 15:48 34.657395 -112.779384 347 9998ft 185kts
01-Dec-19 15:49 34.685959 -112.783768 353 9998ft 185kts
01-Dec-19 15:50 34.714442 -112.786478 329 9988ft 183kts
01-Dec-19 15:51 34.718749 -112.814995 253 10013ft 177kts
01-Dec-19 15:51 34.717027 -112.843926 269 9999ft 178kts
01-Dec-19 15:53 34.718130 -112.884944 272 9998ft 177kts
01-Dec-19 15:54 34.719385 -112.919593 272 9998ft 177kts
01-Dec-19 15:54 34.720426 -112.948258 272 9998ft 177kts
01-Dec-19 15:55 34.721539 -112.979051 272 9998ft 176kts
01-Dec-19 15:57 34.723170 -113.024520 272 9998ft 175kts
01-Dec-19 15:57 34.724205 -113.053629 272 9997ft 175kts
01-Dec-19 15:58 34.725421 -113.088537 272 9993ft 175kts
01-Dec-19 15:59 34.726705 -113.125330 272 9999ft 182kts
01-Dec-19 16:00 34.728003 -113.162824 272 9995ft 187kts
01-Dec-19 16:01 34.729341 -113.201898 273 9993ft 189kts
01-Dec-19 16:02 34.730888 -113.247564 273 9993ft 189kts
01-Dec-19 16:03 34.732324 -113.290387 273 9997ft 190kts
01-Dec-19 16:04 34.733570 -113.327588 273 9998ft 190kts
01-Dec-19 16:05 34.734809 -113.365147 273 9997ft 190kts
01-Dec-19 16:06 34.736022 -113.402396 273 9997ft 190kts
01-Dec-19 16:07 34.737207 -113.439111 273 9997ft 190kts
01-Dec-19 16:08 34.738417 -113.477009 273 9997ft 190kts
01-Dec-19 16:09 34.739555 -113.512969 273 9997ft 190kts
01-Dec-19 16:10 34.740796 -113.552583 273 9997ft 190kts
01-Dec-19 16:11 34.741950 -113.589774 273 9997ft 190kts
01-Dec-19 16:12 34.743101 -113.627285 273 9997ft 190kts
01-Dec-19 16:13 34.744225 -113.664364 272 9999ft 190kts
01-Dec-19 16:14 34.745359 -113.701973 272 9999ft 190kts
01-Dec-19 16:15 34.746473 -113.739302 272 9999ft 190kts
01-Dec-19 16:16 34.747538 -113.775353 272 9999ft 190kts
01-Dec-19 16:17 34.748613 -113.811872 272 9999ft 190kts
01-Dec-19 16:18 34.749697 -113.849906 272 9999ft 190kts
01-Dec-19 16:19 34.750744 -113.886646 272 9999ft 190kts
01-Dec-19 16:20 34.751762 -113.922334 272 9989ft 190kts
01-Dec-19 16:21 34.752702 -113.956069 271 9991ft 191kts
01-Dec-19 16:22 34.753600 -113.988660 271 9997ft 191kts
01-Dec-19 16:23 34.754539 -114.023028 271 9995ft 191kts
01-Dec-19 16:24 34.755467 -114.057262 271 9994ft 191kts
01-Dec-19 16:25 34.756374 -114.091018 271 9994ft 191kts
01-Dec-19 16:26 34.757176 -114.123798 268 9987ft 186kts
01-Dec-19 16:27 34.739193 -114.142411 186 10002ft 186kts
01-Dec-19 16:28 34.712502 -114.139084 172 9866ft 190kts
01-Dec-19 16:29 34.686020 -114.132566 171 9098ft 181kts
01-Dec-19 16:30 34.660384 -114.126175 171 8303ft 178kts
01-Dec-19 16:31 34.634091 -114.119593 171 7476ft 175kts
01-Dec-19 16:32 34.609124 -114.113315 171 6991ft 154kts
01-Dec-19 16:33 34.588494 -114.108080 173 7006ft 126kts
01-Dec-19 16:34 34.566340 -114.102772 171 7014ft 163kts
01-Dec-19 16:35 34.540784 -114.096388 171 7005ft 180kts
01-Dec-19 16:36 34.512068 -114.089195 171 7001ft 189kts
01-Dec-19 16:37 34.482213 -114.081744 171 7000ft 192kts
01-Dec-19 16:38 34.451670 -114.074136 171 6999ft 194kts
01-Dec-19 16:39 34.423694 -114.076458 219 7021ft 185kts
01-Dec-19 16:40 34.404778 -114.104789 240 6521ft 195kts
01-Dec-19 16:41 34.389797 -114.135181 242 5748ft 178kts
01-Dec-19 16:42 34.377157 -114.161224 242 4872ft 149kts
01-Dec-19 16:43 34.366785 -114.182501 244 4367ft 102kts
01-Dec-19 16:44 34.362181 -114.203593 298 4431ft 145kts
01-Dec-19 16:45 34.381105 -114.223522 325 4165ft 185kts
01-Dec-19 16:46 34.404796 -114.240800 328 3847ft 162kts
01-Dec-19 16:47 34.423918 -114.254280 328 3501ft 139kts
01-Dec-19 16:48 34.441168 -114.266418 328 3468ft 134kts
01-Dec-19 16:49 34.459805 -114.279568 328 3052ft 110kts
01-Dec-19 16:50 34.470924 -114.287397 328 2816ft 77kts
01-Dec-19 16:51 34.482520 -114.295604 328 2631ft 101kts
01-Dec-19 16:52 34.496024 -114.305135 329 2318ft 107kts
01-Dec-19 16:53 34.508846 -114.314202 329 2008ft 97kts
01-Dec-19 16:54 34.520807 -114.322663 329 1741ft 95kts
01-Dec-19 16:55 34.531925 -114.330512 329 1521ft 80kts
01-Dec-19 16:56 34.540928 -114.336903 329 1288ft 68kts
01-Dec-19 16:57 34.549520 -114.342971 329 1100ft 71kts
01-Dec-19 16:58 34.558555 -114.349369 330 898ft 72kts
01-Dec-19 16:59 34.565912 -114.354601 331 763ft 31kts
01-Dec-19 17:00 34.567470 -114.357918 278 740ft 16kts
01-Dec-19 17:01 34.568436 -114.359054 333 738ft 8kts
01-Dec-19 17:02 34.569277 -114.359270 61 740ft 0kts
01-Dec-19 17:03 34.569277 -114.359270 61 740ft 0kts
01-Dec-19 17:04 34.569277 -114.359270 61 740ft 0kts
01-Dec-19 17:05 34.569277 -114.359270 61 740ft 0kts
01-Dec-19 17:06 34.569277 -114.359270 61 740ft 0kts
01-Dec-19 17:07 34.569277 -114.359270 61 740ft 0kts
01-Dec-19 17:08 34.569277 -114.359270 61 740ft 0kts
01-Dec-19 17:09 34.569277 -114.359270 61 740ft 0kts
01-Dec-19 17:10 34.569277 -114.359270 61 740ft 0kts
01-Dec-19 17:11 34.569277 -114.359270 61 740ft 0kts
01-Dec-19 17:12 34.569277 -114.359270 61 740ft 0kts
01-Dec-19 17:13 34.569277 -114.359270 61 740ft 0kts

Navigation Log

Ident Type
Flight plan parsing failed, navigation log unavailable